createdAt,value
2019-05-17T00:01:27.081Z,9.15
2019-05-17T00:03:56.476Z,8.05
2019-05-17T00:06:24.496Z,9.03
2019-05-17T00:08:52.518Z,7.85
2019-05-17T00:11:20.379Z,9.25
2019-05-17T00:13:48.503Z,9.03
2019-05-17T00:16:17.412Z,8.55
2019-05-17T00:18:46.404Z,9.50
2019-05-17T00:21:16.758Z,8.70
2019-05-17T00:23:46.777Z,9.08
2019-05-17T00:26:16.435Z,8.98
2019-05-17T00:28:46.772Z,9.40
2019-05-17T00:31:14.271Z,8.30
2019-05-17T00:33:43.309Z,9.68
2019-05-17T00:36:12.085Z,10.45
2019-05-17T00:38:48.279Z,9.65
2019-05-17T00:41:10.025Z,9.83
2019-05-17T00:43:38.025Z,9.45
2019-05-17T00:46:06.679Z,10.23
2019-05-17T00:48:37.308Z,10.65
2019-05-17T00:51:09.306Z,11.57
2019-05-17T00:53:36.262Z,12.07
2019-05-17T00:56:06.466Z,10.25
2019-05-17T00:58:34.099Z,10.65
2019-05-17T01:01:08.862Z,9.58
2019-05-17T01:03:39.865Z,13.30
2019-05-17T01:06:09.363Z,10.63
2019-05-17T01:08:37.513Z,11.03
2019-05-17T01:11:07.121Z,11.57
2019-05-17T01:13:37.465Z,11.65
2019-05-17T01:16:07.748Z,11.22
2019-05-17T01:18:36.192Z,11.35
2019-05-17T01:21:09.381Z,12.68
2019-05-17T01:23:37.384Z,9.88
2019-05-17T01:26:07.338Z,11.88
2019-05-17T01:28:36.309Z,12.80
2019-05-17T01:31:06.489Z,10.88
2019-05-17T01:33:36.764Z,11.08
2019-05-17T01:36:06.588Z,11.88
2019-05-17T01:38:34.011Z,11.10
2019-05-17T01:41:04.214Z,11.00
2019-05-17T01:43:32.145Z,11.15
2019-05-17T01:46:00.062Z,17.55
2019-05-17T01:48:30.777Z,11.12
2019-05-17T01:50:58.710Z,10.65
2019-05-17T01:53:27.114Z,13.00
2019-05-17T01:55:56.815Z,11.43
2019-05-17T01:58:27.075Z,12.65
2019-05-17T02:00:57.317Z,12.47
2019-05-17T02:03:26.777Z,11.15
2019-05-17T02:05:58.041Z,12.23
2019-05-17T02:08:26.436Z,11.40
2019-05-17T02:10:57.400Z,12.15
2019-05-17T02:13:27.807Z,12.20
2019-05-17T02:15:56.417Z,11.12
2019-05-17T02:19:06.697Z,12.13
2019-05-17T02:24:27.792Z,10.60
2019-05-17T04:36:13.282Z,14.55
2019-05-17T04:38:43.632Z,11.93
2019-05-17T04:41:36.014Z,12.98
2019-05-17T04:43:53.446Z,12.58
2019-05-17T04:46:23.601Z,12.07
2019-05-17T04:48:53.584Z,12.75
2019-05-17T04:51:23.216Z,13.68
2019-05-17T04:53:52.978Z,12.65
2019-05-17T04:56:22.688Z,12.13
2019-05-17T04:58:54.104Z,13.55
2019-05-17T05:01:23.646Z,14.80
2019-05-17T05:03:52.481Z,12.18
2019-05-17T05:06:23.343Z,11.38
2019-05-17T05:08:52.900Z,11.95
2019-05-17T05:11:23.099Z,11.28
2019-05-17T05:13:53.086Z,13.22
2019-05-17T05:16:22.594Z,11.08
2019-05-17T05:18:52.082Z,12.95
2019-05-17T05:22:04.462Z,13.40
2019-05-17T05:24:32.347Z,14.03
2019-05-17T05:27:02.556Z,11.33
2019-05-17T05:29:32.155Z,11.00
2019-05-17T05:32:11.832Z,12.15
2019-05-17T05:34:43.859Z,12.37
2019-05-17T05:37:12.831Z,11.30
2019-05-17T05:39:41.407Z,10.40
2019-05-17T05:42:11.572Z,13.48
2019-05-17T05:44:41.580Z,11.05
2019-05-17T05:47:32.368Z,11.95
2019-05-17T05:50:01.749Z,10.75
2019-05-17T05:52:32.247Z,11.65
2019-05-17T05:55:01.490Z,10.15
2019-05-17T05:57:32.055Z,9.95
2019-05-17T06:00:02.005Z,10.63
2019-05-17T06:02:29.340Z,11.55
2019-05-17T06:04:57.261Z,11.12
2019-05-17T06:07:25.371Z,12.37
2019-05-17T06:10:13.275Z,11.45
2019-05-17T06:12:43.373Z,10.93
2019-05-17T06:16:17.031Z,10.60
2019-05-17T06:18:44.882Z,11.12
2019-05-17T06:22:31.840Z,11.00
2019-05-17T06:25:14.753Z,9.53
2019-05-17T06:27:48.527Z,8.48
2019-05-17T06:30:18.233Z,10.13
2019-05-17T06:32:46.180Z,9.80
2019-05-17T06:35:33.559Z,9.30
2019-05-17T06:38:02.026Z,10.40
2019-05-17T06:40:32.355Z,10.82
2019-05-17T06:43:05.043Z,11.48
2019-05-17T06:45:55.627Z,8.35
2019-05-17T06:48:24.627Z,10.80
2019-05-17T06:51:02.701Z,12.53
2019-05-17T06:53:43.988Z,10.43
2019-05-17T06:56:12.859Z,10.50
2019-05-17T06:58:40.925Z,13.60
2019-05-17T07:01:10.072Z,10.60
2019-05-17T07:03:39.856Z,11.28
2019-05-17T07:06:16.824Z,11.93
2019-05-17T07:08:42.668Z,11.65
2019-05-17T07:11:10.649Z,13.07
2019-05-17T07:13:39.567Z,12.33
2019-05-17T07:16:10.159Z,14.00
2019-05-17T07:18:59.702Z,11.08
2019-05-17T07:21:29.745Z,13.48
2019-05-17T07:24:07.045Z,14.93
2019-05-17T07:27:00.616Z,13.65
2019-05-17T07:30:13.242Z,13.90
2019-05-17T07:33:27.312Z,13.50
2019-05-17T07:35:55.200Z,13.95
2019-05-17T07:38:23.120Z,15.83
2019-05-17T07:41:10.958Z,16.62
2019-05-17T07:43:40.961Z,14.10
2019-05-17T07:47:15.313Z,13.90
2019-05-17T07:49:36.341Z,12.78
2019-05-17T07:52:52.897Z,13.25
2019-05-17T07:55:30.994Z,14.70
2019-05-17T08:01:52.731Z,13.05
2019-05-17T08:04:35.473Z,17.35
2019-05-17T08:07:42.072Z,17.60
2019-05-17T08:11:16.929Z,16.00
2019-05-17T08:14:59.867Z,14.20
2019-05-17T08:17:25.050Z,15.20
2019-05-17T08:20:53.880Z,15.93
2019-05-17T08:24:10.430Z,16.03
2019-05-17T08:27:36.388Z,15.10
2019-05-17T08:30:20.634Z,16.97
2019-05-17T08:41:32.228Z,16.83
2019-05-17T08:52:02.314Z,16.67
2019-05-17T08:54:30.488Z,20.00
2019-05-17T08:57:00.524Z,19.23
2019-05-17T08:59:29.685Z,17.70
2019-05-17T09:01:59.972Z,18.20
2019-05-17T09:05:16.227Z,19.10
2019-05-17T09:09:52.683Z,17.50
2019-05-17T09:12:14.018Z,17.93
2019-05-17T09:24:43.152Z,19.43
2019-05-17T09:30:50.854Z,20.20
2019-05-17T09:33:19.304Z,21.80
2019-05-17T09:35:53.024Z,18.40
2019-05-17T09:38:29.536Z,17.33
2019-05-17T09:41:03.030Z,17.57
2019-05-17T09:43:54.350Z,17.60
2019-05-17T09:46:55.040Z,20.40
2019-05-17T09:49:45.048Z,17.70
2019-05-17T09:56:01.317Z,15.60
2019-05-17T09:58:30.253Z,18.90
2019-05-17T10:01:01.065Z,16.87
2019-05-17T10:03:28.006Z,16.80
2019-05-17T10:05:56.643Z,18.20
2019-05-17T10:08:24.643Z,17.50
2019-05-17T10:11:04.736Z,16.00
2019-05-17T10:13:31.736Z,16.67
2019-05-17T10:16:41.272Z,18.13
2019-05-17T10:19:29.904Z,16.27
2019-05-17T10:22:11.350Z,16.17
2019-05-17T10:25:09.687Z,15.27
2019-05-17T10:28:05.781Z,14.77
2019-05-17T10:31:43.181Z,15.23
2019-05-17T10:34:43.192Z,14.70
2019-05-17T10:38:12.426Z,12.77
2019-05-17T10:41:45.103Z,13.43
2019-05-17T10:45:27.465Z,11.53
2019-05-17T10:47:57.822Z,10.77
2019-05-17T10:50:25.789Z,9.90
2019-05-17T10:53:00.434Z,10.20
2019-05-17T10:56:10.593Z,9.50
2019-05-17T10:59:00.129Z,10.40
2019-05-17T11:01:30.499Z,11.23
2019-05-17T11:03:59.593Z,11.37
2019-05-17T11:06:30.210Z,9.37
2019-05-17T11:08:59.526Z,10.77
2019-05-17T11:11:27.584Z,9.20
2019-05-17T11:13:55.464Z,8.77
2019-05-17T11:16:27.643Z,8.40
2019-05-17T11:18:55.499Z,8.10
2019-05-17T11:21:29.087Z,8.10
2019-05-17T11:24:01.558Z,6.83
2019-05-17T11:26:42.577Z,6.10
2019-05-17T11:29:45.149Z,5.00
2019-05-17T11:32:43.975Z,5.10
2019-05-17T11:35:46.579Z,5.53
2019-05-17T11:38:52.240Z,6.50
2019-05-17T11:42:20.692Z,5.30
2019-05-17T11:44:39.506Z,6.13
2019-05-17T11:47:07.488Z,5.57
2019-05-17T12:31:31.165Z,5.63
2019-05-17T12:33:59.523Z,6.27
2019-05-17T12:36:27.503Z,7.10
2019-05-17T12:38:55.695Z,7.10
2019-05-17T12:41:23.926Z,6.10
2019-05-17T12:43:51.923Z,5.30
2019-05-17T12:46:19.982Z,5.20
2019-05-17T12:48:47.964Z,5.30
2019-05-17T12:51:15.929Z,5.70
2019-05-17T12:53:43.933Z,5.73
2019-05-17T12:56:11.876Z,6.13
2019-05-17T12:58:40.235Z,6.33
2019-05-17T13:01:08.991Z,5.50
2019-05-17T13:03:37.979Z,5.47
2019-05-17T13:06:05.993Z,7.73
2019-05-17T13:08:34.067Z,7.50
2019-05-17T13:11:02.780Z,7.13
2019-05-17T13:13:30.842Z,7.80
2019-05-17T13:15:59.243Z,6.57
2019-05-17T13:18:27.245Z,6.40
2019-05-17T13:20:55.253Z,5.90
2019-05-17T13:23:23.449Z,8.53
2019-05-17T13:25:51.554Z,6.93
2019-05-17T13:28:19.718Z,6.23
2019-05-17T13:30:47.997Z,6.00
2019-05-17T13:33:16.138Z,6.00
2019-05-17T13:35:44.238Z,5.63
2019-05-17T13:38:12.682Z,6.00
2019-05-17T13:40:40.900Z,5.80
2019-05-17T13:43:08.878Z,8.90
2019-05-17T13:45:37.787Z,5.90
2019-05-17T13:48:06.016Z,6.20
2019-05-17T13:50:34.132Z,5.70
2019-05-17T13:53:02.261Z,5.40
2019-05-17T13:55:30.461Z,5.93
2019-05-17T14:18:55.732Z,6.77
2019-05-17T14:48:45.798Z,4.67
2019-05-17T17:58:54.165Z,4.20
2019-05-17T18:01:24.407Z,5.07
2019-05-17T18:03:53.227Z,4.50
2019-05-17T18:06:21.208Z,4.10
2019-05-17T18:08:49.172Z,3.80
2019-05-17T18:11:17.625Z,3.97
2019-05-17T18:13:45.739Z,3.87
2019-05-17T18:16:14.854Z,3.43
2019-05-17T18:18:43.169Z,4.37
2019-05-17T18:21:11.284Z,3.80
2019-05-17T18:23:39.631Z,5.80
2019-05-17T18:26:07.793Z,5.57
2019-05-17T18:28:35.817Z,4.00
2019-05-17T18:31:04.362Z,5.43
2019-05-17T18:33:32.759Z,5.37
2019-05-17T18:36:01.014Z,6.30
2019-05-17T18:38:30.872Z,11.53
2019-05-17T18:40:58.926Z,19.10
2019-05-17T18:43:27.353Z,11.90
2019-05-17T18:45:55.831Z,15.20
2019-05-17T18:48:23.722Z,15.87
2019-05-17T18:50:51.798Z,10.67
2019-05-17T18:53:19.739Z,10.03
2019-05-17T18:55:47.824Z,7.13
2019-05-17T18:58:15.881Z,6.47
2019-05-17T19:00:44.199Z,6.20
2019-05-17T19:03:12.277Z,5.73
2019-05-17T19:05:40.340Z,5.23
2019-05-17T19:08:08.344Z,11.57
2019-05-17T19:10:37.295Z,10.80
2019-05-17T19:13:05.205Z,7.40
2019-05-17T19:15:33.134Z,7.70
2019-05-17T19:18:01.059Z,7.30
2019-05-17T19:20:29.178Z,8.03
2019-05-17T19:22:58.701Z,8.37
2019-05-17T19:25:27.062Z,11.20
2019-05-17T19:27:55.166Z,19.87
2019-05-17T19:30:23.354Z,20.77
2019-05-17T19:32:51.369Z,18.97
2019-05-17T19:35:19.329Z,16.93
2019-05-17T19:37:47.288Z,16.87
2019-05-17T19:40:16.703Z,19.37
2019-05-17T19:42:44.722Z,22.73
2019-05-17T19:45:14.047Z,24.80
2019-05-17T19:47:42.015Z,21.00
2019-05-17T19:50:10.722Z,20.60
2019-05-17T19:52:38.604Z,18.63
2019-05-17T19:55:06.954Z,11.60
2019-05-17T19:57:35.167Z,12.20
2019-05-17T20:00:03.719Z,7.40
2019-05-17T20:02:32.762Z,11.13
2019-05-17T20:05:00.873Z,15.80
2019-05-17T20:07:37.101Z,19.20
2019-05-17T20:09:59.047Z,16.93
2019-05-17T20:12:26.993Z,10.50
2019-05-17T20:14:54.974Z,9.47
2019-05-17T20:17:22.893Z,10.20
2019-05-17T20:19:50.920Z,8.40
2019-05-17T20:22:19.997Z,6.60
2019-05-17T20:24:53.677Z,5.57
2019-05-17T20:27:21.736Z,7.40
2019-05-17T20:29:49.864Z,6.20
2019-05-17T20:32:17.880Z,5.60
2019-05-17T20:34:45.989Z,7.40
2019-05-17T20:37:13.946Z,5.60
2019-05-17T20:39:42.270Z,5.80
2019-05-17T20:42:10.383Z,4.93
2019-05-17T20:44:38.755Z,6.50
2019-05-17T20:47:06.797Z,5.03
2019-05-17T20:49:34.739Z,8.23
2019-05-17T20:52:02.667Z,5.87
2019-05-17T20:54:30.726Z,15.53
2019-05-17T20:56:58.695Z,6.70
2019-05-17T20:59:26.690Z,5.67
2019-05-17T21:01:57.306Z,7.33
2019-05-17T21:04:25.274Z,5.33
2019-05-17T21:06:53.274Z,6.10
2019-05-17T21:09:21.144Z,5.80
2019-05-17T21:11:49.152Z,5.37
2019-05-17T21:14:17.051Z,10.50
2019-05-17T21:16:45.020Z,4.67
2019-05-17T21:19:13.045Z,5.23
2019-05-17T21:21:41.101Z,6.53
2019-05-17T21:24:09.065Z,5.97
2019-05-17T21:26:37.113Z,6.40
2019-05-17T21:29:05.108Z,6.27
2019-05-17T21:31:33.136Z,5.97
2019-05-17T21:34:01.213Z,5.97
2019-05-17T21:36:29.182Z,5.50
2019-05-17T21:38:57.250Z,6.00
2019-05-17T21:41:25.751Z,5.17
2019-05-17T21:43:53.784Z,6.67
2019-05-17T21:46:22.852Z,5.97
2019-05-17T21:48:50.797Z,6.10
2019-05-17T21:51:18.974Z,6.43
2019-05-17T21:53:50.161Z,5.97
2019-05-17T21:56:18.284Z,7.23
2019-05-17T21:58:46.215Z,6.33
2019-05-17T22:01:19.199Z,6.73
2019-05-17T22:03:47.246Z,5.93
2019-05-17T22:06:15.460Z,6.17
2019-05-17T22:08:43.487Z,6.80
2019-05-17T22:11:11.994Z,5.80
2019-05-17T22:13:40.018Z,8.80
2019-05-17T22:16:18.968Z,6.27
2019-05-17T22:18:37.839Z,8.57
2019-05-17T22:21:05.851Z,7.70
2019-05-17T22:23:33.815Z,10.13
2019-05-17T22:26:01.684Z,9.13
2019-05-17T22:28:29.632Z,7.30
2019-05-17T22:30:57.574Z,7.50
2019-05-17T22:33:25.494Z,7.83
2019-05-17T22:35:53.494Z,8.33
2019-05-17T22:38:21.859Z,8.70
2019-05-17T22:40:49.918Z,8.00
2019-05-17T22:43:18.026Z,8.30
2019-05-17T22:45:45.985Z,7.93
2019-05-17T22:48:13.919Z,14.83
2019-05-17T22:50:43.472Z,14.63
2019-05-17T22:53:11.635Z,11.60
2019-05-17T22:55:39.763Z,10.93
2019-05-17T22:58:08.028Z,9.70
2019-05-17T23:00:38.328Z,10.20
2019-05-17T23:03:06.357Z,10.47
2019-05-17T23:05:34.372Z,12.40
2019-05-17T23:08:02.447Z,13.20
2019-05-17T23:10:30.390Z,11.70
2019-05-17T23:12:58.299Z,11.50
2019-05-17T23:15:28.194Z,14.30
2019-05-17T23:17:56.123Z,10.33
2019-05-17T23:20:23.968Z,14.13
2019-05-17T23:22:51.874Z,11.90
2019-05-17T23:25:19.804Z,11.77
2019-05-17T23:27:47.717Z,12.47
2019-05-17T23:30:15.629Z,12.75
2019-05-17T23:32:43.577Z,12.80
2019-05-17T23:35:11.558Z,11.50
2019-05-17T23:37:39.448Z,12.57
2019-05-17T23:40:08.042Z,15.47
2019-05-17T23:42:35.928Z,9.90
2019-05-17T23:45:04.962Z,11.73
2019-05-17T23:47:33.350Z,11.30
2019-05-17T23:50:01.219Z,11.10
2019-05-17T23:52:29.110Z,10.67
2019-05-17T23:54:57.076Z,11.43
2019-05-17T23:57:24.985Z,12.27
2019-05-17T23:59:52.825Z,11.03
